sensor_id;sensor_type;location;lat;lon;timestamp;temperature;humidity
50570;DHT22;36525;49.398;7.614;2023-12-07T00:00:05;2.30;99.90
50570;DHT22;36525;49.398;7.614;2023-12-07T00:02:32;2.30;99.90
50570;DHT22;36525;49.398;7.614;2023-12-07T00:04:59;2.30;99.90
50570;DHT22;36525;49.398;7.614;2023-12-07T00:07:25;2.30;99.90
50570;DHT22;36525;49.398;7.614;2023-12-07T00:09:52;2.30;99.90
50570;DHT22;36525;49.398;7.614;2023-12-07T00:12:19;2.30;99.90
50570;DHT22;36525;49.398;7.614;2023-12-07T00:14:47;2.30;99.90
50570;DHT22;36525;49.398;7.614;2023-12-07T00:17:14;2.30;99.90
50570;DHT22;36525;49.398;7.614;2023-12-07T00:19:41;2.30;99.90
50570;DHT22;36525;49.398;7.614;2023-12-07T00:22:08;2.30;99.90
50570;DHT22;36525;49.398;7.614;2023-12-07T00:24:35;2.30;99.90
50570;DHT22;36525;49.398;7.614;2023-12-07T00:27:02;2.30;99.90
50570;DHT22;36525;49.398;7.614;2023-12-07T00:29:28;2.30;99.90
50570;DHT22;36525;49.398;7.614;2023-12-07T00:31:55;2.20;99.90
50570;DHT22;36525;49.398;7.614;2023-12-07T00:34:22;2.30;99.90
50570;DHT22;36525;49.398;7.614;2023-12-07T00:36:49;2.20;99.90
50570;DHT22;36525;49.398;7.614;2023-12-07T00:39:16;2.30;99.90
50570;DHT22;36525;49.398;7.614;2023-12-07T00:41:43;2.30;99.90
50570;DHT22;36525;49.398;7.614;2023-12-07T00:44:10;2.30;99.90
50570;DHT22;36525;49.398;7.614;2023-12-07T00:46:37;2.20;99.90
50570;DHT22;36525;49.398;7.614;2023-12-07T00:49:04;2.20;99.90
50570;DHT22;36525;49.398;7.614;2023-12-07T00:51:31;2.30;99.90
50570;DHT22;36525;49.398;7.614;2023-12-07T00:53:57;2.30;99.90
50570;DHT22;36525;49.398;7.614;2023-12-07T00:56:25;2.30;99.90
50570;DHT22;36525;49.398;7.614;2023-12-07T00:58:51;2.30;99.90
50570;DHT22;36525;49.398;7.614;2023-12-07T01:01:18;2.30;99.90
50570;DHT22;36525;49.398;7.614;2023-12-07T01:03:46;2.30;99.90
50570;DHT22;36525;49.398;7.614;2023-12-07T01:06:13;2.40;99.90
50570;DHT22;36525;49.398;7.614;2023-12-07T01:08:40;2.30;99.90
50570;DHT22;36525;49.398;7.614;2023-12-07T01:11:06;2.40;99.90
50570;DHT22;36525;49.398;7.614;2023-12-07T01:13:33;2.40;99.90
50570;DHT22;36525;49.398;7.614;2023-12-07T01:16:02;2.50;99.90
50570;DHT22;36525;49.398;7.614;2023-12-07T01:18:29;2.50;99.90
50570;DHT22;36525;49.398;7.614;2023-12-07T01:20:56;2.50;99.90
50570;DHT22;36525;49.398;7.614;2023-12-07T01:23:23;2.60;99.90
50570;DHT22;36525;49.398;7.614;2023-12-07T01:25:50;2.60;99.90
50570;DHT22;36525;49.398;7.614;2023-12-07T01:28:17;2.60;99.90
50570;DHT22;36525;49.398;7.614;2023-12-07T01:30:44;2.60;99.90
50570;DHT22;36525;49.398;7.614;2023-12-07T01:33:10;2.60;99.90
50570;DHT22;36525;49.398;7.614;2023-12-07T01:35:37;2.60;99.90
50570;DHT22;36525;49.398;7.614;2023-12-07T01:38:04;2.50;99.90
50570;DHT22;36525;49.398;7.614;2023-12-07T01:40:31;2.50;99.90
50570;DHT22;36525;49.398;7.614;2023-12-07T01:42:58;2.50;99.90
50570;DHT22;36525;49.398;7.614;2023-12-07T01:45:25;2.50;99.90
50570;DHT22;36525;49.398;7.614;2023-12-07T01:47:52;2.60;99.90
50570;DHT22;36525;49.398;7.614;2023-12-07T01:50:19;2.50;99.90
50570;DHT22;36525;49.398;7.614;2023-12-07T01:52:52;2.50;99.90
50570;DHT22;36525;49.398;7.614;2023-12-07T01:55:22;2.50;99.90
50570;DHT22;36525;49.398;7.614;2023-12-07T01:57:49;2.40;99.90
50570;DHT22;36525;49.398;7.614;2023-12-07T02:00:16;2.40;99.90
50570;DHT22;36525;49.398;7.614;2023-12-07T02:02:44;2.30;99.90
50570;DHT22;36525;49.398;7.614;2023-12-07T02:05:15;2.20;99.90
50570;DHT22;36525;49.398;7.614;2023-12-07T02:07:42;2.10;99.90
50570;DHT22;36525;49.398;7.614;2023-12-07T02:10:12;2.10;99.90
50570;DHT22;36525;49.398;7.614;2023-12-07T02:12:40;2.20;99.90
50570;DHT22;36525;49.398;7.614;2023-12-07T02:15:07;2.20;99.90
50570;DHT22;36525;49.398;7.614;2023-12-07T02:17:35;2.20;99.90
50570;DHT22;36525;49.398;7.614;2023-12-07T02:20:11;2.10;99.90
50570;DHT22;36525;49.398;7.614;2023-12-07T02:22:44;2.00;99.90
50570;DHT22;36525;49.398;7.614;2023-12-07T02:25:15;2.00;99.90
50570;DHT22;36525;49.398;7.614;2023-12-07T02:27:45;2.10;99.90
50570;DHT22;36525;49.398;7.614;2023-12-07T02:30:13;2.10;99.90
50570;DHT22;36525;49.398;7.614;2023-12-07T02:32:40;2.10;99.90
50570;DHT22;36525;49.398;7.614;2023-12-07T02:35:09;2.10;99.90
50570;DHT22;36525;49.398;7.614;2023-12-07T02:37:48;2.10;99.90
50570;DHT22;36525;49.398;7.614;2023-12-07T02:40:24;2.10;99.90
50570;DHT22;36525;49.398;7.614;2023-12-07T02:42:52;2.00;99.90
50570;DHT22;36525;49.398;7.614;2023-12-07T02:45:20;2.00;99.90
50570;DHT22;36525;49.398;7.614;2023-12-07T02:47:47;1.90;99.90
50570;DHT22;36525;49.398;7.614;2023-12-07T02:50:14;2.00;99.90
50570;DHT22;36525;49.398;7.614;2023-12-07T02:52:41;2.10;99.90
50570;DHT22;36525;49.398;7.614;2023-12-07T02:55:08;2.10;99.90
50570;DHT22;36525;49.398;7.614;2023-12-07T02:57:36;1.90;99.90
50570;DHT22;36525;49.398;7.614;2023-12-07T03:00:03;1.90;99.90
50570;DHT22;36525;49.398;7.614;2023-12-07T03:02:35;1.90;99.90
50570;DHT22;36525;49.398;7.614;2023-12-07T03:05:02;1.90;99.90
50570;DHT22;36525;49.398;7.614;2023-12-07T03:07:30;1.80;99.90
50570;DHT22;36525;49.398;7.614;2023-12-07T03:09:57;1.80;99.90
50570;DHT22;36525;49.398;7.614;2023-12-07T03:12:24;1.80;99.90
50570;DHT22;36525;49.398;7.614;2023-12-07T03:14:52;1.80;99.90
50570;DHT22;36525;49.398;7.614;2023-12-07T03:17:19;1.70;99.90
50570;DHT22;36525;49.398;7.614;2023-12-07T03:19:45;1.70;99.90
50570;DHT22;36525;49.398;7.614;2023-12-07T03:22:12;1.80;99.90
50570;DHT22;36525;49.398;7.614;2023-12-07T03:24:43;1.80;99.90
50570;DHT22;36525;49.398;7.614;2023-12-07T03:27:12;1.80;99.90
50570;DHT22;36525;49.398;7.614;2023-12-07T03:29:39;1.90;99.90
50570;DHT22;36525;49.398;7.614;2023-12-07T03:32:06;1.90;99.90
50570;DHT22;36525;49.398;7.614;2023-12-07T03:34:33;1.90;99.90
50570;DHT22;36525;49.398;7.614;2023-12-07T03:36:59;2.00;99.90
50570;DHT22;36525;49.398;7.614;2023-12-07T03:39:29;1.90;99.90
50570;DHT22;36525;49.398;7.614;2023-12-07T03:41:59;1.90;99.90
50570;DHT22;36525;49.398;7.614;2023-12-07T03:44:26;1.90;99.90
50570;DHT22;36525;49.398;7.614;2023-12-07T03:46:55;1.90;99.90
50570;DHT22;36525;49.398;7.614;2023-12-07T03:49:22;1.90;99.90
50570;DHT22;36525;49.398;7.614;2023-12-07T03:51:49;1.90;99.90
50570;DHT22;36525;49.398;7.614;2023-12-07T03:54:16;1.90;99.90
50570;DHT22;36525;49.398;7.614;2023-12-07T03:56:43;2.00;99.90
50570;DHT22;36525;49.398;7.614;2023-12-07T03:59:10;2.00;99.90
50570;DHT22;36525;49.398;7.614;2023-12-07T04:01:37;2.00;99.90
50570;DHT22;36525;49.398;7.614;2023-12-07T04:04:04;2.00;99.90
50570;DHT22;36525;49.398;7.614;2023-12-07T04:06:31;2.10;99.90
50570;DHT22;36525;49.398;7.614;2023-12-07T04:08:58;2.00;99.90
50570;DHT22;36525;49.398;7.614;2023-12-07T04:11:25;1.90;99.90
50570;DHT22;36525;49.398;7.614;2023-12-07T04:13:52;1.70;99.90
50570;DHT22;36525;49.398;7.614;2023-12-07T04:16:18;1.70;99.90
50570;DHT22;36525;49.398;7.614;2023-12-07T04:18:45;1.60;99.90
50570;DHT22;36525;49.398;7.614;2023-12-07T04:21:12;1.60;99.90
50570;DHT22;36525;49.398;7.614;2023-12-07T04:23:39;1.70;99.90
50570;DHT22;36525;49.398;7.614;2023-12-07T04:26:06;1.80;99.90
50570;DHT22;36525;49.398;7.614;2023-12-07T04:28:33;1.80;99.90
50570;DHT22;36525;49.398;7.614;2023-12-07T04:31:00;1.90;99.90
50570;DHT22;36525;49.398;7.614;2023-12-07T04:33:26;1.90;99.90
50570;DHT22;36525;49.398;7.614;2023-12-07T04:35:53;1.90;99.90
50570;DHT22;36525;49.398;7.614;2023-12-07T04:38:20;2.00;99.90
50570;DHT22;36525;49.398;7.614;2023-12-07T04:40:47;1.90;99.90
50570;DHT22;36525;49.398;7.614;2023-12-07T04:43:14;1.90;99.90
50570;DHT22;36525;49.398;7.614;2023-12-07T04:45:41;1.90;99.90
50570;DHT22;36525;49.398;7.614;2023-12-07T04:48:08;1.80;99.90
50570;DHT22;36525;49.398;7.614;2023-12-07T04:50:35;1.70;99.90
50570;DHT22;36525;49.398;7.614;2023-12-07T04:53:02;1.40;99.90
50570;DHT22;36525;49.398;7.614;2023-12-07T04:55:29;1.20;99.90
50570;DHT22;36525;49.398;7.614;2023-12-07T04:57:56;1.20;99.90
50570;DHT22;36525;49.398;7.614;2023-12-07T05:00:23;1.30;99.90
50570;DHT22;36525;49.398;7.614;2023-12-07T05:02:50;1.40;99.90
50570;DHT22;36525;49.398;7.614;2023-12-07T05:05:17;1.50;99.90
50570;DHT22;36525;49.398;7.614;2023-12-07T05:07:44;1.50;99.90
50570;DHT22;36525;49.398;7.614;2023-12-07T05:10:11;1.50;99.90
50570;DHT22;36525;49.398;7.614;2023-12-07T05:12:38;1.50;99.90
50570;DHT22;36525;49.398;7.614;2023-12-07T05:15:05;1.50;99.90
50570;DHT22;36525;49.398;7.614;2023-12-07T05:17:32;1.50;99.90
50570;DHT22;36525;49.398;7.614;2023-12-07T05:20:00;1.40;99.90
50570;DHT22;36525;49.398;7.614;2023-12-07T05:22:26;1.30;99.90
50570;DHT22;36525;49.398;7.614;2023-12-07T05:24:55;1.30;99.90
50570;DHT22;36525;49.398;7.614;2023-12-07T05:27:23;1.30;99.90
50570;DHT22;36525;49.398;7.614;2023-12-07T05:29:49;1.30;99.90
50570;DHT22;36525;49.398;7.614;2023-12-07T05:32:16;1.20;99.90
50570;DHT22;36525;49.398;7.614;2023-12-07T05:34:44;1.20;99.90
50570;DHT22;36525;49.398;7.614;2023-12-07T05:37:11;1.30;99.90
50570;DHT22;36525;49.398;7.614;2023-12-07T05:39:38;1.30;99.90
50570;DHT22;36525;49.398;7.614;2023-12-07T05:42:05;1.40;99.90
50570;DHT22;36525;49.398;7.614;2023-12-07T05:44:32;1.50;99.90
50570;DHT22;36525;49.398;7.614;2023-12-07T05:46:58;1.50;99.90
50570;DHT22;36525;49.398;7.614;2023-12-07T05:49:25;1.50;99.90
50570;DHT22;36525;49.398;7.614;2023-12-07T05:51:52;1.40;99.90
50570;DHT22;36525;49.398;7.614;2023-12-07T05:54:20;1.30;99.90
50570;DHT22;36525;49.398;7.614;2023-12-07T05:56:50;1.30;99.90
50570;DHT22;36525;49.398;7.614;2023-12-07T05:59:17;1.30;99.90
50570;DHT22;36525;49.398;7.614;2023-12-07T06:01:44;1.30;99.90
50570;DHT22;36525;49.398;7.614;2023-12-07T06:04:11;1.30;99.90
50570;DHT22;36525;49.398;7.614;2023-12-07T06:06:39;1.30;99.90
50570;DHT22;36525;49.398;7.614;2023-12-07T06:09:06;1.30;99.90
50570;DHT22;36525;49.398;7.614;2023-12-07T06:11:34;1.30;99.90
50570;DHT22;36525;49.398;7.614;2023-12-07T06:14:03;1.30;99.90
50570;DHT22;36525;49.398;7.614;2023-12-07T06:16:32;1.30;99.90
50570;DHT22;36525;49.398;7.614;2023-12-07T06:18:59;1.20;99.90
50570;DHT22;36525;49.398;7.614;2023-12-07T06:21:26;1.00;99.90
50570;DHT22;36525;49.398;7.614;2023-12-07T06:23:56;1.00;99.90
50570;DHT22;36525;49.398;7.614;2023-12-07T06:26:23;1.00;99.90
50570;DHT22;36525;49.398;7.614;2023-12-07T06:28:50;1.00;99.90
50570;DHT22;36525;49.398;7.614;2023-12-07T06:31:17;0.80;99.90
50570;DHT22;36525;49.398;7.614;2023-12-07T06:33:48;0.80;99.90
50570;DHT22;36525;49.398;7.614;2023-12-07T06:36:19;0.80;99.90
50570;DHT22;36525;49.398;7.614;2023-12-07T06:38:47;0.90;99.90
50570;DHT22;36525;49.398;7.614;2023-12-07T06:41:14;1.00;99.90
50570;DHT22;36525;49.398;7.614;2023-12-07T06:43:42;1.10;99.90
50570;DHT22;36525;49.398;7.614;2023-12-07T06:46:11;1.10;99.90
50570;DHT22;36525;49.398;7.614;2023-12-07T06:48:39;1.00;99.90
50570;DHT22;36525;49.398;7.614;2023-12-07T06:51:07;1.00;99.90
50570;DHT22;36525;49.398;7.614;2023-12-07T06:53:34;1.10;99.90
50570;DHT22;36525;49.398;7.614;2023-12-07T06:56:01;1.20;99.90
50570;DHT22;36525;49.398;7.614;2023-12-07T06:58:27;0.90;99.90
50570;DHT22;36525;49.398;7.614;2023-12-07T07:00:54;0.60;99.90
50570;DHT22;36525;49.398;7.614;2023-12-07T07:03:21;0.40;99.90
50570;DHT22;36525;49.398;7.614;2023-12-07T07:05:48;0.40;99.90
50570;DHT22;36525;49.398;7.614;2023-12-07T07:08:15;0.50;99.90
50570;DHT22;36525;49.398;7.614;2023-12-07T07:10:43;0.70;99.90
50570;DHT22;36525;49.398;7.614;2023-12-07T07:13:10;0.80;99.90
50570;DHT22;36525;49.398;7.614;2023-12-07T07:15:37;0.90;99.90
50570;DHT22;36525;49.398;7.614;2023-12-07T07:18:04;0.90;99.90
50570;DHT22;36525;49.398;7.614;2023-12-07T07:20:32;1.00;99.90
50570;DHT22;36525;49.398;7.614;2023-12-07T07:22:58;1.00;99.90
50570;DHT22;36525;49.398;7.614;2023-12-07T07:25:26;1.20;99.90
50570;DHT22;36525;49.398;7.614;2023-12-07T07:27:53;1.10;99.90
50570;DHT22;36525;49.398;7.614;2023-12-07T07:30:21;0.90;99.90
50570;DHT22;36525;49.398;7.614;2023-12-07T07:32:48;1.00;99.90
50570;DHT22;36525;49.398;7.614;2023-12-07T07:35:15;1.10;99.90
50570;DHT22;36525;49.398;7.614;2023-12-07T07:37:42;1.10;99.90
50570;DHT22;36525;49.398;7.614;2023-12-07T07:40:09;1.10;99.90
50570;DHT22;36525;49.398;7.614;2023-12-07T07:42:38;1.00;99.90
50570;DHT22;36525;49.398;7.614;2023-12-07T07:45:08;0.80;99.90
50570;DHT22;36525;49.398;7.614;2023-12-07T07:47:35;0.90;99.90
50570;DHT22;36525;49.398;7.614;2023-12-07T07:50:03;0.90;99.90
50570;DHT22;36525;49.398;7.614;2023-12-07T07:52:32;1.00;99.90
50570;DHT22;36525;49.398;7.614;2023-12-07T07:55:00;1.00;99.90
50570;DHT22;36525;49.398;7.614;2023-12-07T07:57:29;0.90;99.90
50570;DHT22;36525;49.398;7.614;2023-12-07T07:59:57;1.00;99.90
50570;DHT22;36525;49.398;7.614;2023-12-07T08:02:24;1.10;99.90
50570;DHT22;36525;49.398;7.614;2023-12-07T08:04:51;1.00;99.90
50570;DHT22;36525;49.398;7.614;2023-12-07T08:07:18;1.00;99.90
50570;DHT22;36525;49.398;7.614;2023-12-07T08:09:46;0.90;99.90
50570;DHT22;36525;49.398;7.614;2023-12-07T08:12:12;0.90;99.90
50570;DHT22;36525;49.398;7.614;2023-12-07T08:14:39;0.90;99.90
50570;DHT22;36525;49.398;7.614;2023-12-07T08:17:06;0.80;99.90
50570;DHT22;36525;49.398;7.614;2023-12-07T08:19:34;0.70;99.90
50570;DHT22;36525;49.398;7.614;2023-12-07T08:22:01;0.60;99.90
50570;DHT22;36525;49.398;7.614;2023-12-07T08:24:28;0.50;99.90
50570;DHT22;36525;49.398;7.614;2023-12-07T08:26:55;0.40;99.90
50570;DHT22;36525;49.398;7.614;2023-12-07T08:29:22;0.40;99.90
50570;DHT22;36525;49.398;7.614;2023-12-07T08:31:49;0.40;99.90
50570;DHT22;36525;49.398;7.614;2023-12-07T08:34:15;0.50;99.90
50570;DHT22;36525;49.398;7.614;2023-12-07T08:36:45;0.60;99.90
50570;DHT22;36525;49.398;7.614;2023-12-07T08:39:12;0.70;99.90
50570;DHT22;36525;49.398;7.614;2023-12-07T08:41:40;0.60;99.90
50570;DHT22;36525;49.398;7.614;2023-12-07T08:44:07;0.80;99.90
50570;DHT22;36525;49.398;7.614;2023-12-07T08:46:34;1.00;99.90
50570;DHT22;36525;49.398;7.614;2023-12-07T08:49:01;1.20;99.90
50570;DHT22;36525;49.398;7.614;2023-12-07T08:51:28;1.30;99.90
50570;DHT22;36525;49.398;7.614;2023-12-07T08:53:56;1.30;99.90
50570;DHT22;36525;49.398;7.614;2023-12-07T08:56:23;1.40;99.90
50570;DHT22;36525;49.398;7.614;2023-12-07T08:58:50;1.40;99.90
50570;DHT22;36525;49.398;7.614;2023-12-07T09:01:17;1.40;99.90
50570;DHT22;36525;49.398;7.614;2023-12-07T09:03:57;1.40;99.90
50570;DHT22;36525;49.398;7.614;2023-12-07T09:06:24;1.40;99.90
50570;DHT22;36525;49.398;7.614;2023-12-07T09:08:52;1.40;99.90
50570;DHT22;36525;49.398;7.614;2023-12-07T09:11:19;1.40;99.90
50570;DHT22;36525;49.398;7.614;2023-12-07T09:13:46;1.30;99.90
50570;DHT22;36525;49.398;7.614;2023-12-07T09:16:13;1.40;99.90
50570;DHT22;36525;49.398;7.614;2023-12-07T09:18:41;1.60;99.90
50570;DHT22;36525;49.398;7.614;2023-12-07T09:21:12;1.70;99.90
50570;DHT22;36525;49.398;7.614;2023-12-07T09:23:40;1.80;99.90
50570;DHT22;36525;49.398;7.614;2023-12-07T09:26:07;2.10;99.90
50570;DHT22;36525;49.398;7.614;2023-12-07T09:28:34;2.20;99.90
50570;DHT22;36525;49.398;7.614;2023-12-07T09:31:01;2.20;99.90
50570;DHT22;36525;49.398;7.614;2023-12-07T09:33:28;2.30;99.90
50570;DHT22;36525;49.398;7.614;2023-12-07T09:35:55;2.30;99.90
50570;DHT22;36525;49.398;7.614;2023-12-07T09:38:24;2.40;99.90
50570;DHT22;36525;49.398;7.614;2023-12-07T09:40:54;2.30;99.90
50570;DHT22;36525;49.398;7.614;2023-12-07T09:43:21;2.30;99.90
50570;DHT22;36525;49.398;7.614;2023-12-07T09:45:48;2.30;99.90
50570;DHT22;36525;49.398;7.614;2023-12-07T09:48:16;2.40;99.90
50570;DHT22;36525;49.398;7.614;2023-12-07T09:50:43;2.70;99.90
50570;DHT22;36525;49.398;7.614;2023-12-07T09:53:11;2.90;99.90
50570;DHT22;36525;49.398;7.614;2023-12-07T09:55:38;3.10;99.90
50570;DHT22;36525;49.398;7.614;2023-12-07T09:58:06;3.10;99.90
50570;DHT22;36525;49.398;7.614;2023-12-07T10:00:35;3.20;99.90
50570;DHT22;36525;49.398;7.614;2023-12-07T10:03:03;3.00;99.90
50570;DHT22;36525;49.398;7.614;2023-12-07T10:05:51;2.90;99.90
50570;DHT22;36525;49.398;7.614;2023-12-07T10:08:29;2.80;99.90
50570;DHT22;36525;49.398;7.614;2023-12-07T10:11:07;2.90;99.90
50570;DHT22;36525;49.398;7.614;2023-12-07T10:13:35;2.90;99.90
50570;DHT22;36525;49.398;7.614;2023-12-07T10:16:09;2.90;99.90
50570;DHT22;36525;49.398;7.614;2023-12-07T10:18:38;2.80;99.90
50570;DHT22;36525;49.398;7.614;2023-12-07T10:21:10;2.80;99.90
50570;DHT22;36525;49.398;7.614;2023-12-07T10:23:37;2.80;99.90
50570;DHT22;36525;49.398;7.614;2023-12-07T10:26:07;3.00;99.90
50570;DHT22;36525;49.398;7.614;2023-12-07T10:28:35;3.10;99.90
50570;DHT22;36525;49.398;7.614;2023-12-07T10:31:08;3.30;99.90
50570;DHT22;36525;49.398;7.614;2023-12-07T10:33:35;3.40;99.90
50570;DHT22;36525;49.398;7.614;2023-12-07T10:36:02;3.30;99.90
50570;DHT22;36525;49.398;7.614;2023-12-07T10:38:30;3.20;99.90
50570;DHT22;36525;49.398;7.614;2023-12-07T10:41:03;3.30;99.90
50570;DHT22;36525;49.398;7.614;2023-12-07T10:43:35;3.30;99.90
50570;DHT22;36525;49.398;7.614;2023-12-07T10:46:04;3.20;99.90
50570;DHT22;36525;49.398;7.614;2023-12-07T10:48:32;3.10;99.90
50570;DHT22;36525;49.398;7.614;2023-12-07T10:51:00;3.20;99.90
50570;DHT22;36525;49.398;7.614;2023-12-07T10:53:33;3.20;99.90
50570;DHT22;36525;49.398;7.614;2023-12-07T10:56:09;3.40;99.90
50570;DHT22;36525;49.398;7.614;2023-12-07T10:58:37;3.40;99.90
50570;DHT22;36525;49.398;7.614;2023-12-07T11:01:06;3.50;99.90
50570;DHT22;36525;49.398;7.614;2023-12-07T11:03:35;3.60;99.90
50570;DHT22;36525;49.398;7.614;2023-12-07T11:06:03;3.60;99.90
50570;DHT22;36525;49.398;7.614;2023-12-07T11:11:07;3.10;99.90
50570;DHT22;36525;49.398;7.614;2023-12-07T11:13:39;2.90;99.90
50570;DHT22;36525;49.398;7.614;2023-12-07T11:16:12;2.80;99.90
50570;DHT22;36525;49.398;7.614;2023-12-07T11:18:39;2.80;99.90
50570;DHT22;36525;49.398;7.614;2023-12-07T11:21:06;2.60;99.90
50570;DHT22;36525;49.398;7.614;2023-12-07T11:23:33;2.70;99.90
50570;DHT22;36525;49.398;7.614;2023-12-07T11:26:00;2.80;99.90
50570;DHT22;36525;49.398;7.614;2023-12-07T11:28:37;2.70;99.90
50570;DHT22;36525;49.398;7.614;2023-12-07T11:31:06;2.70;99.90
50570;DHT22;36525;49.398;7.614;2023-12-07T11:33:34;2.80;99.90
50570;DHT22;36525;49.398;7.614;2023-12-07T11:36:05;2.90;99.90
50570;DHT22;36525;49.398;7.614;2023-12-07T11:38:32;2.90;99.90
50570;DHT22;36525;49.398;7.614;2023-12-07T11:41:00;3.00;99.90
50570;DHT22;36525;49.398;7.614;2023-12-07T11:43:36;3.10;99.90
50570;DHT22;36525;49.398;7.614;2023-12-07T11:46:07;3.10;99.90
50570;DHT22;36525;49.398;7.614;2023-12-07T11:48:34;3.00;99.90
50570;DHT22;36525;49.398;7.614;2023-12-07T11:51:03;3.00;99.90
50570;DHT22;36525;49.398;7.614;2023-12-07T11:53:31;3.00;99.90
50570;DHT22;36525;49.398;7.614;2023-12-07T11:56:00;3.00;99.90
50570;DHT22;36525;49.398;7.614;2023-12-07T11:58:28;3.00;99.90
50570;DHT22;36525;49.398;7.614;2023-12-07T12:00:56;3.20;99.90
50570;DHT22;36525;49.398;7.614;2023-12-07T12:03:24;3.30;99.90
50570;DHT22;36525;49.398;7.614;2023-12-07T12:05:51;3.40;99.90
50570;DHT22;36525;49.398;7.614;2023-12-07T12:08:18;3.60;99.90
50570;DHT22;36525;49.398;7.614;2023-12-07T12:10:46;3.70;99.90
50570;DHT22;36525;49.398;7.614;2023-12-07T12:13:16;3.60;99.90
50570;DHT22;36525;49.398;7.614;2023-12-07T12:15:43;3.60;99.90
50570;DHT22;36525;49.398;7.614;2023-12-07T12:18:09;3.50;99.90
50570;DHT22;36525;49.398;7.614;2023-12-07T12:20:36;3.60;99.90
50570;DHT22;36525;49.398;7.614;2023-12-07T12:23:03;3.60;99.90
50570;DHT22;36525;49.398;7.614;2023-12-07T12:25:30;3.50;99.90
50570;DHT22;36525;49.398;7.614;2023-12-07T12:27:58;3.50;99.90
50570;DHT22;36525;49.398;7.614;2023-12-07T12:30:30;3.40;99.90
50570;DHT22;36525;49.398;7.614;2023-12-07T12:32:58;3.50;99.90
50570;DHT22;36525;49.398;7.614;2023-12-07T12:35:26;3.70;99.90
50570;DHT22;36525;49.398;7.614;2023-12-07T12:37:53;3.70;99.90
50570;DHT22;36525;49.398;7.614;2023-12-07T12:40:26;3.70;99.90
50570;DHT22;36525;49.398;7.614;2023-12-07T12:42:55;3.70;99.90
50570;DHT22;36525;49.398;7.614;2023-12-07T12:45:23;3.70;99.90
50570;DHT22;36525;49.398;7.614;2023-12-07T12:47:50;3.70;99.90
50570;DHT22;36525;49.398;7.614;2023-12-07T12:50:36;3.70;99.90
50570;DHT22;36525;49.398;7.614;2023-12-07T12:53:09;3.90;99.90
50570;DHT22;36525;49.398;7.614;2023-12-07T12:55:37;3.90;99.90
50570;DHT22;36525;49.398;7.614;2023-12-07T12:58:09;3.90;99.90
50570;DHT22;36525;49.398;7.614;2023-12-07T13:00:39;4.10;99.90
50570;DHT22;36525;49.398;7.614;2023-12-07T13:03:07;4.20;99.90
50570;DHT22;36525;49.398;7.614;2023-12-07T13:05:34;4.20;99.90
50570;DHT22;36525;49.398;7.614;2023-12-07T13:08:01;4.20;99.90
50570;DHT22;36525;49.398;7.614;2023-12-07T13:10:40;4.20;99.90
50570;DHT22;36525;49.398;7.614;2023-12-07T13:13:07;4.30;99.90
50570;DHT22;36525;49.398;7.614;2023-12-07T13:15:34;4.40;99.90
50570;DHT22;36525;49.398;7.614;2023-12-07T13:18:01;4.40;99.90
50570;DHT22;36525;49.398;7.614;2023-12-07T13:20:33;4.20;99.90
50570;DHT22;36525;49.398;7.614;2023-12-07T13:23:19;4.20;99.90
50570;DHT22;36525;49.398;7.614;2023-12-07T13:25:47;4.20;99.90
50570;DHT22;36525;49.398;7.614;2023-12-07T13:28:15;4.10;99.90
50570;DHT22;36525;49.398;7.614;2023-12-07T13:30:44;4.10;99.90
50570;DHT22;36525;49.398;7.614;2023-12-07T13:33:11;4.10;99.90
50570;DHT22;36525;49.398;7.614;2023-12-07T13:35:53;4.00;99.90
50570;DHT22;36525;49.398;7.614;2023-12-07T13:38:22;4.00;99.90
50570;DHT22;36525;49.398;7.614;2023-12-07T13:40:50;3.70;99.90
50570;DHT22;36525;49.398;7.614;2023-12-07T13:43:17;3.50;99.90
50570;DHT22;36525;49.398;7.614;2023-12-07T13:45:45;3.40;99.90
50570;DHT22;36525;49.398;7.614;2023-12-07T13:48:12;3.20;99.90
50570;DHT22;36525;49.398;7.614;2023-12-07T13:50:40;3.00;99.90
50570;DHT22;36525;49.398;7.614;2023-12-07T13:53:07;2.90;99.90
50570;DHT22;36525;49.398;7.614;2023-12-07T13:55:38;2.90;99.90
50570;DHT22;36525;49.398;7.614;2023-12-07T13:58:06;2.90;99.90
50570;DHT22;36525;49.398;7.614;2023-12-07T14:00:33;3.00;99.90
50570;DHT22;36525;49.398;7.614;2023-12-07T14:03:00;3.00;99.90
50570;DHT22;36525;49.398;7.614;2023-12-07T14:05:27;3.00;99.90
50570;DHT22;36525;49.398;7.614;2023-12-07T14:07:54;3.00;99.90
50570;DHT22;36525;49.398;7.614;2023-12-07T14:10:22;3.10;99.90
50570;DHT22;36525;49.398;7.614;2023-12-07T14:12:49;3.00;99.90
50570;DHT22;36525;49.398;7.614;2023-12-07T14:15:16;3.00;99.90
50570;DHT22;36525;49.398;7.614;2023-12-07T14:17:51;2.90;99.90
50570;DHT22;36525;49.398;7.614;2023-12-07T14:20:19;2.90;99.90
50570;DHT22;36525;49.398;7.614;2023-12-07T14:23:10;2.90;99.90
50570;DHT22;36525;49.398;7.614;2023-12-07T14:25:37;2.80;99.90
50570;DHT22;36525;49.398;7.614;2023-12-07T14:28:06;2.80;99.90
50570;DHT22;36525;49.398;7.614;2023-12-07T14:30:34;2.80;99.90
50570;DHT22;36525;49.398;7.614;2023-12-07T14:33:03;2.80;99.90
50570;DHT22;36525;49.398;7.614;2023-12-07T14:35:30;2.70;99.90
50570;DHT22;36525;49.398;7.614;2023-12-07T14:37:57;2.80;99.90
50570;DHT22;36525;49.398;7.614;2023-12-07T14:40:25;2.80;99.90
50570;DHT22;36525;49.398;7.614;2023-12-07T14:42:51;2.80;99.90
50570;DHT22;36525;49.398;7.614;2023-12-07T14:45:19;2.80;99.90
50570;DHT22;36525;49.398;7.614;2023-12-07T14:47:47;2.80;99.90
50570;DHT22;36525;49.398;7.614;2023-12-07T14:50:14;2.80;99.90
50570;DHT22;36525;49.398;7.614;2023-12-07T14:52:41;2.80;99.90
50570;DHT22;36525;49.398;7.614;2023-12-07T14:55:08;2.80;99.90
50570;DHT22;36525;49.398;7.614;2023-12-07T14:57:34;2.70;99.90
50570;DHT22;36525;49.398;7.614;2023-12-07T15:00:02;2.60;99.90
50570;DHT22;36525;49.398;7.614;2023-12-07T15:02:31;2.50;99.90
50570;DHT22;36525;49.398;7.614;2023-12-07T15:04:58;2.50;99.90
50570;DHT22;36525;49.398;7.614;2023-12-07T15:07:25;2.50;99.90
50570;DHT22;36525;49.398;7.614;2023-12-07T15:09:52;2.40;99.90
50570;DHT22;36525;49.398;7.614;2023-12-07T15:12:19;2.40;99.90
50570;DHT22;36525;49.398;7.614;2023-12-07T15:14:46;2.40;99.90
50570;DHT22;36525;49.398;7.614;2023-12-07T15:17:13;2.30;99.90
50570;DHT22;36525;49.398;7.614;2023-12-07T15:19:40;2.20;99.90
50570;DHT22;36525;49.398;7.614;2023-12-07T15:22:08;2.10;99.90
50570;DHT22;36525;49.398;7.614;2023-12-07T15:24:35;2.00;99.90
50570;DHT22;36525;49.398;7.614;2023-12-07T15:27:05;1.90;99.90
50570;DHT22;36525;49.398;7.614;2023-12-07T15:29:33;1.90;99.90
50570;DHT22;36525;49.398;7.614;2023-12-07T15:32:05;2.00;99.90
50570;DHT22;36525;49.398;7.614;2023-12-07T15:34:33;1.90;99.90
50570;DHT22;36525;49.398;7.614;2023-12-07T15:37:08;2.00;99.90
50570;DHT22;36525;49.398;7.614;2023-12-07T15:39:40;2.00;99.90
50570;DHT22;36525;49.398;7.614;2023-12-07T15:42:09;2.00;99.90
50570;DHT22;36525;49.398;7.614;2023-12-07T15:44:36;2.00;99.90
50570;DHT22;36525;49.398;7.614;2023-12-07T15:47:04;2.00;99.90
50570;DHT22;36525;49.398;7.614;2023-12-07T15:49:31;1.90;99.90
50570;DHT22;36525;49.398;7.614;2023-12-07T15:51:58;1.80;99.90